METAR Data
IDs: Format: Raw Decoded Include TAF

Data at: 2046 UTC 25 Oct 2021

LJLJ 252030Z VRB01KT CAVOK 01/00 Q1025 NOSIG